Em Athens — V7US8 — position and weather

sailwx.info

Track history (hours):
 
Tides and Currents Weather Stations Pressure Air Temp Water Temp Dewpoint Dewpoint Depression Visibility Wind Speed Wind Dir Waves Ship Positions

Em Athens

Last reported at 2017-Jun-23 22:00 UTC. Time now 2017-Jun-23 22:09 UTC.
Position N 43°53' E 009°46'.

Length 207 m; draft 9.4 m.

Type: Ship (hazmat cat A). MMSI: 538004019.

Date/timePositionNaut miles runAvg speedWind from/ knotsBaromVisibWave heightAir tempDewpointWater temp
2017-Jun-23 22:00N 43°53' E 009°46'1 2.7
2017-Jun-23 21:30N 43°53' E 009°45'611.6
2017-Jun-23 21:00N 43°56' E 009°37'713.2
2017-Jun-23 20:30N 43°60' E 009°30'714.6
2017-Jun-23 20:00N 44°04' E 009°21'714.2
2017-Jun-23 19:30N 44°07' E 009°13'714.8
2017-Jun-23 19:00N 44°12' E 009°04'510.8
2017-Jun-23 18:30N 44°14' E 008°58'4 7.3
2017-Jun-23 18:00N 44°16' E 008°53'713.3
2017-Jun-23 17:30N 44°20' E 008°46'4 9.0
2017-Jun-23 17:01N 44°24' E 008°44'2 3.5
2017-Jun-23 16:28N 44°25' E 008°47'0 0.0
2017-Jun-23 15:58N 44°25' E 008°47'0 0.0
2017-Jun-23 15:28N 44°25' E 008°47'0 0.0
2017-Jun-23 14:58N 44°25' E 008°47'0 0.0
2017-Jun-23 13:58N 44°25' E 008°47'0 0.0
2017-Jun-23 13:28N 44°25' E 008°47'0 0.1
2017-Jun-23 12:58N 44°25' E 008°47'0 0.0
2017-Jun-23 12:28N 44°25' E 008°47'0 0.0
2017-Jun-23 11:58N 44°25' E 008°47'0 0.0
2017-Jun-23 11:28N 44°25' E 008°47'0 0.0
2017-Jun-23 10:58N 44°25' E 008°47'0 0.0
2017-Jun-23 10:19N 44°25' E 008°47'0 0.0
2017-Jun-23 09:58N 44°25' E 008°47'0 0.0
2017-Jun-23 09:28N 44°25' E 008°47'0 0.0
2017-Jun-23 08:58N 44°25' E 008°47'0 0.0
2017-Jun-23 08:28N 44°25' E 008°47'0 0.0
2017-Jun-23 07:52N 44°25' E 008°47'0 0.0
2017-Jun-23 07:25N 44°25' E 008°47'0 0.1
2017-Jun-23 06:55N 44°25' E 008°47'0 0.1
2017-Jun-23 06:28N 44°25' E 008°47'0 0.0
2017-Jun-23 05:58N 44°25' E 008°47'0 0.0
2017-Jun-23 05:28N 44°25' E 008°47'0 0.0
2017-Jun-23 04:55N 44°25' E 008°47'0 0.0
2017-Jun-23 04:28N 44°25' E 008°47'0 0.0
2017-Jun-23 03:55N 44°25' E 008°47'0 0.5
2017-Jun-23 03:31N 44°25' E 008°47'2 4.8
2017-Jun-23 03:01N 44°23' E 008°44'3 6.9
2017-Jun-23 02:31N 44°20' E 008°44'612.6
2017-Jun-23 02:00N 44°15' E 008°50'713.6
2017-Jun-23 01:30N 44°10' E 008°56'713.9
2017-Jun-23 01:00N 44°04' E 009°01'713.8
2017-Jun-23 00:30N 43°59' E 009°07'713.9
2017-Jun-23 00:00N 43°53' E 009°14'714.0
2017-Jun-22 23:30N 43°48' E 009°20'714.2
2017-Jun-22 23:00N 43°42' E 009°24'714.4
2017-Jun-22 22:30N 43°36' E 009°30'714.6
2017-Jun-22 22:00N 43°30' E 009°35'714.5
2017-Jun-22 21:30N 43°24' E 009°41'714.4
2017-Jun-22 21:00N 43°18' E 009°46'714.4
2017-Jun-22 20:30N 43°12' E 009°52'714.0
2017-Jun-22 20:00N 43°06' E 009°57'714.0
2017-Jun-22 19:30N 42°59' E 009°60'714.7
2017-Jun-22 19:00N 42°52' E 010°01'714.7
2017-Jun-22 18:30N 42°45' E 010°02'1514.4
2017-Jun-22 17:28N 42°34' E 010°16'715.8
2017-Jun-22 17:01N 42°28' E 010°22'1018.3
2017-Jun-22 16:28N 42°20' E 010°30'918.5
2017-Jun-22 15:58N 42°13' E 010°38'1218.4
2017-Jun-22 15:20N 42°03' E 010°48'618.3
2017-Jun-22 15:00N 41°59' E 010°52'917.7
2017-Jun-22 14:30N 41°51' E 010°60'1818.2
2017-Jun-22 13:30N 41°37' E 011°14'3318.3
2017-Jun-22 11:43N 41°12' E 011°42'518.3
2017-Jun-22 11:26N 41°08' E 011°47'6418.3
2017-Jun-22 07:56N 40°27' E 012°52'18515.5
2017-Jun-21 20:00N 38°27' E 015°54'0 0.0
2017-Jun-21 19:18N 38°27' E 015°54'0 0.0
2017-Jun-21 18:48N 38°27' E 015°54'0 0.1
2017-Jun-21 18:30N 38°27' E 015°54'0 0.0
2017-Jun-21 12:06N 38°27' E 015°54'0 0.0
2017-Jun-21 11:51N 38°27' E 015°54'0 0.0
2017-Jun-21 11:21N 38°27' E 015°54'0 0.0
2017-Jun-21 10:51N 38°27' E 015°54'0 0.0
2017-Jun-21 10:21N 38°27' E 015°54'0 0.0
2017-Jun-20 19:06N 38°27' E 015°54'0 0.1
2017-Jun-20 19:00N 38°27' E 015°54'0 0.0
2017-Jun-20 13:00N 38°27' E 015°54'0 0.1
2017-Jun-20 12:12N 38°27' E 015°54'0 0.0
2017-Jun-20 12:00N 38°27' E 015°54'0 0.0
2017-Jun-20 11:30N 38°27' E 015°54'0 0.0
2017-Jun-20 11:00N 38°27' E 015°54'0 0.0
2017-Jun-20 10:30N 38°27' E 015°54'0 0.0
2017-Jun-20 06:06N 38°27' E 015°54'0 0.1
2017-Jun-20 06:00N 38°27' E 015°54'0 0.0
2017-Jun-19 23:06N 38°27' E 015°54'0 0.1
2017-Jun-19 22:54N 38°27' E 015°54'0 0.0
2017-Jun-19 22:00N 38°27' E 015°54'0 0.0
2017-Jun-19 21:30N 38°27' E 015°54'10 0.6
2017-Jun-19 06:18N 38°32' E 015°44'0 0.5
2017-Jun-19 05:55N 38°32' E 015°43'3 5.8
2017-Jun-19 05:27N 38°32' E 015°40'0 0.0
2017-Jun-19 04:02N 38°32' E 015°40'0 0.2
2017-Jun-19 03:58N 38°32' E 015°40'4 2.0
2017-Jun-19 01:59N 38°29' E 015°42'0 0.4
2017-Jun-19 01:28N 38°29' E 015°42'0 0.3
2017-Jun-19 01:00N 38°29' E 015°42'0 0.4
2017-Jun-19 00:22N 38°29' E 015°42'0 0.5
2017-Jun-18 23:59N 38°29' E 015°42'1 0.6
2017-Jun-18 22:57N 38°30' E 015°43'0 0.6
2017-Jun-18 22:18N 38°30' E 015°43'1 0.7
2017-Jun-18 21:19N 38°31' E 015°43'0 0.6
2017-Jun-18 20:45N 38°31' E 015°43'1 0.5
2017-Jun-18 18:53N 38°32' E 015°44'4 1.7
2017-Jun-18 16:41N 38°28' E 015°44'0 0.5
2017-Jun-18 16:24N 38°28' E 015°44'0 0.5
2017-Jun-18 15:51N 38°29' E 015°44'14 1.6
2017-Jun-18 07:27N 38°15' E 015°39'1414.2
2017-Jun-18 06:29N 38°02' E 015°35'713.6
2017-Jun-18 06:00N 37°56' E 015°38'814.3
2017-Jun-18 05:29N 37°51' E 015°45'914.8
2017-Jun-18 04:54N 37°47' E 015°55'714.9
2017-Jun-18 04:26N 37°45' E 016°04'36312.8
2017-Jun-17 00:09N 37°09' E 023°39'414.7
2017-Jun-16 23:52N 37°13' E 023°40'514.9
2017-Jun-16 23:30N 37°18' E 023°41'714.5
2017-Jun-16 23:00N 37°26' E 023°41'714.6
2017-Jun-16 22:30N 37°33' E 023°40'713.5
2017-Jun-16 22:00N 37°40' E 023°39'4 8.0
2017-Jun-16 21:30N 37°43' E 023°40'4 7.5
2017-Jun-16 21:00N 37°47' E 023°38'714.0
2017-Jun-16 20:30N 37°54' E 023°36'3 6.4
2017-Jun-16 20:00N 37°57' E 023°36'0 0.6
2017-Jun-16 19:29N 37°57' E 023°36'0 0.0
2017-Jun-16 18:59N 37°57' E 023°36'0 0.0
2017-Jun-16 18:29N 37°57' E 023°36'0 0.0
2017-Jun-16 17:59N 37°57' E 023°36'0 0.0
2017-Jun-16 17:26N 37°57' E 023°36'0 0.0
2017-Jun-16 16:59N 37°57' E 023°36'0 0.0
2017-Jun-16 16:29N 37°57' E 023°36'0 0.0
2017-Jun-16 15:56N 37°57' E 023°36'0 0.0
2017-Jun-16 15:29N 37°57' E 023°36'0 0.0
2017-Jun-16 14:59N 37°57' E 023°36'0 0.0
2017-Jun-16 14:29N 37°57' E 023°36'0 0.0
2017-Jun-16 13:23N 37°57' E 023°36'0 0.1
2017-Jun-16 12:59N 37°57' E 023°36'0 0.0
2017-Jun-16 12:29N 37°57' E 023°36'0 0.1
2017-Jun-16 11:59N 37°57' E 023°36'0 0.1
2017-Jun-16 11:29N 37°57' E 023°36'0 0.1
2017-Jun-16 10:59N 37°57' E 023°36'0 0.0
2017-Jun-16 10:26N 37°57' E 023°36'0 0.1
2017-Jun-16 09:56N 37°57' E 023°36'0 0.0
2017-Jun-16 09:29N 37°57' E 023°36'0 0.0
2017-Jun-16 08:59N 37°57' E 023°36'0 0.0
2017-Jun-16 08:29N 37°57' E 023°36'0 0.0
2017-Jun-16 07:59N 37°57' E 023°36'0 0.0
2017-Jun-16 07:26N 37°57' E 023°36'0 0.0
2017-Jun-16 07:00N 37°57' E 023°36'3 5.2
2017-Jun-16 06:30N 37°55' E 023°36'0 0.7
2017-Jun-16 06:00N 37°55' E 023°36'4 8.0
2017-Jun-16 05:30N 37°51' E 023°39'714.4
2017-Jun-16 05:00N 37°45' E 023°43'714.7
2017-Jun-16 04:30N 37°38' E 023°46'814.9
2017-Jun-16 04:00N 37°31' E 023°49'  
Track history (hours):
 
Tides and Currents Weather Stations Pressure Air Temp Water Temp Dewpoint Dewpoint Depression Visibility Wind Speed Wind Dir Waves Ship Positions

Em Athens

Last reported at 2017-Jun-23 22:00 UTC. Time now 2017-Jun-23 22:09 UTC.
Position N 43°53' E 009°46'.

Length 207 m; draft 9.4 m.

Type: Ship (hazmat cat A). MMSI: 538004019.

Date/timePositionNaut miles runAvg speedWind from/ knotsBaromVisibWave heightAir tempDewpointWater temp
2017-Jun-23 22:00N 43°53' E 009°46'1 2.7
2017-Jun-23 21:30N 43°53' E 009°45'611.6
2017-Jun-23 21:00N 43°56' E 009°37'713.2
2017-Jun-23 20:30N 43°60' E 009°30'714.6
2017-Jun-23 20:00N 44°04' E 009°21'714.2
2017-Jun-23 19:30N 44°07' E 009°13'714.8
2017-Jun-23 19:00N 44°12' E 009°04'510.8
2017-Jun-23 18:30N 44°14' E 008°58'4 7.3
2017-Jun-23 18:00N 44°16' E 008°53'713.3
2017-Jun-23 17:30N 44°20' E 008°46'4 9.0
2017-Jun-23 17:01N 44°24' E 008°44'2 3.5
2017-Jun-23 16:28N 44°25' E 008°47'0 0.0
2017-Jun-23 15:58N 44°25' E 008°47'0 0.0
2017-Jun-23 15:28N 44°25' E 008°47'0 0.0
2017-Jun-23 14:58N 44°25' E 008°47'0 0.0
2017-Jun-23 13:58N 44°25' E 008°47'0 0.0
2017-Jun-23 13:28N 44°25' E 008°47'0 0.1
2017-Jun-23 12:58N 44°25' E 008°47'0 0.0
2017-Jun-23 12:28N 44°25' E 008°47'0 0.0
2017-Jun-23 11:58N 44°25' E 008°47'0 0.0
2017-Jun-23 11:28N 44°25' E 008°47'0 0.0
2017-Jun-23 10:58N 44°25' E 008°47'0 0.0
2017-Jun-23 10:19N 44°25' E 008°47'0 0.0
2017-Jun-23 09:58N 44°25' E 008°47'0 0.0
2017-Jun-23 09:28N 44°25' E 008°47'0 0.0
2017-Jun-23 08:58N 44°25' E 008°47'0 0.0
2017-Jun-23 08:28N 44°25' E 008°47'0 0.0
2017-Jun-23 07:52N 44°25' E 008°47'0 0.0
2017-Jun-23 07:25N 44°25' E 008°47'0 0.1
2017-Jun-23 06:55N 44°25' E 008°47'0 0.1
2017-Jun-23 06:28N 44°25' E 008°47'0 0.0
2017-Jun-23 05:58N 44°25' E 008°47'0 0.0
2017-Jun-23 05:28N 44°25' E 008°47'0 0.0
2017-Jun-23 04:55N 44°25' E 008°47'0 0.0
2017-Jun-23 04:28N 44°25' E 008°47'0 0.0
2017-Jun-23 03:55N 44°25' E 008°47'0 0.5
2017-Jun-23 03:31N 44°25' E 008°47'2 4.8
2017-Jun-23 03:01N 44°23' E 008°44'3 6.9
2017-Jun-23 02:31N 44°20' E 008°44'612.6
2017-Jun-23 02:00N 44°15' E 008°50'713.6
2017-Jun-23 01:30N 44°10' E 008°56'713.9
2017-Jun-23 01:00N 44°04' E 009°01'713.8
2017-Jun-23 00:30N 43°59' E 009°07'713.9
2017-Jun-23 00:00N 43°53' E 009°14'714.0
2017-Jun-22 23:30N 43°48' E 009°20'714.2
2017-Jun-22 23:00N 43°42' E 009°24'714.4
2017-Jun-22 22:30N 43°36' E 009°30'714.6
2017-Jun-22 22:00N 43°30' E 009°35'714.5
2017-Jun-22 21:30N 43°24' E 009°41'714.4
2017-Jun-22 21:00N 43°18' E 009°46'714.4
2017-Jun-22 20:30N 43°12' E 009°52'714.0
2017-Jun-22 20:00N 43°06' E 009°57'714.0
2017-Jun-22 19:30N 42°59' E 009°60'714.7
2017-Jun-22 19:00N 42°52' E 010°01'714.7
2017-Jun-22 18:30N 42°45' E 010°02'1514.4
2017-Jun-22 17:28N 42°34' E 010°16'715.8
2017-Jun-22 17:01N 42°28' E 010°22'1018.3
2017-Jun-22 16:28N 42°20' E 010°30'918.5
2017-Jun-22 15:58N 42°13' E 010°38'1218.4
2017-Jun-22 15:20N 42°03' E 010°48'618.3
2017-Jun-22 15:00N 41°59' E 010°52'917.7
2017-Jun-22 14:30N 41°51' E 010°60'1818.2
2017-Jun-22 13:30N 41°37' E 011°14'3318.3
2017-Jun-22 11:43N 41°12' E 011°42'518.3
2017-Jun-22 11:26N 41°08' E 011°47'6418.3
2017-Jun-22 07:56N 40°27' E 012°52'18515.5
2017-Jun-21 20:00N 38°27' E 015°54'0 0.0
2017-Jun-21 19:18N 38°27' E 015°54'0 0.0
2017-Jun-21 18:48N 38°27' E 015°54'0 0.1
2017-Jun-21 18:30N 38°27' E 015°54'0 0.0
2017-Jun-21 12:06N 38°27' E 015°54'0 0.0
2017-Jun-21 11:51N 38°27' E 015°54'0 0.0
2017-Jun-21 11:21N 38°27' E 015°54'0 0.0
2017-Jun-21 10:51N 38°27' E 015°54'0 0.0
2017-Jun-21 10:21N 38°27' E 015°54'0 0.0
2017-Jun-20 19:06N 38°27' E 015°54'0 0.1
2017-Jun-20 19:00N 38°27' E 015°54'0 0.0
2017-Jun-20 13:00N 38°27' E 015°54'0 0.1
2017-Jun-20 12:12N 38°27' E 015°54'0 0.0
2017-Jun-20 12:00N 38°27' E 015°54'0 0.0
2017-Jun-20 11:30N 38°27' E 015°54'0 0.0
2017-Jun-20 11:00N 38°27' E 015°54'0 0.0
2017-Jun-20 10:30N 38°27' E 015°54'0 0.0
2017-Jun-20 06:06N 38°27' E 015°54'0 0.1
2017-Jun-20 06:00N 38°27' E 015°54'0 0.0
2017-Jun-19 23:06N 38°27' E 015°54'0 0.1
2017-Jun-19 22:54N 38°27' E 015°54'0 0.0
2017-Jun-19 22:00N 38°27' E 015°54'0 0.0
2017-Jun-19 21:30N 38°27' E 015°54'10 0.6
2017-Jun-19 06:18N 38°32' E 015°44'0 0.5
2017-Jun-19 05:55N 38°32' E 015°43'3 5.8
2017-Jun-19 05:27N 38°32' E 015°40'0 0.0
2017-Jun-19 04:02N 38°32' E 015°40'0 0.2
2017-Jun-19 03:58N 38°32' E 015°40'4 2.0
2017-Jun-19 01:59N 38°29' E 015°42'0 0.4
2017-Jun-19 01:28N 38°29' E 015°42'0 0.3
2017-Jun-19 01:00N 38°29' E 015°42'0 0.4
2017-Jun-19 00:22N 38°29' E 015°42'0 0.5
2017-Jun-18 23:59N 38°29' E 015°42'1 0.6
2017-Jun-18 22:57N 38°30' E 015°43'0 0.6
2017-Jun-18 22:18N 38°30' E 015°43'1 0.7
2017-Jun-18 21:19N 38°31' E 015°43'0 0.6
2017-Jun-18 20:45N 38°31' E 015°43'1 0.5
2017-Jun-18 18:53N 38°32' E 015°44'4 1.7
2017-Jun-18 16:41N 38°28' E 015°44'0 0.5
2017-Jun-18 16:24N 38°28' E 015°44'0 0.5
2017-Jun-18 15:51N 38°29' E 015°44'14 1.6
2017-Jun-18 07:27N 38°15' E 015°39'1414.2
2017-Jun-18 06:29N 38°02' E 015°35'713.6
2017-Jun-18 06:00N 37°56' E 015°38'814.3
2017-Jun-18 05:29N 37°51' E 015°45'914.8
2017-Jun-18 04:54N 37°47' E 015°55'714.9
2017-Jun-18 04:26N 37°45' E 016°04'36312.8
2017-Jun-17 00:09N 37°09' E 023°39'414.7
2017-Jun-16 23:52N 37°13' E 023°40'514.9
2017-Jun-16 23:30N 37°18' E 023°41'714.5
2017-Jun-16 23:00N 37°26' E 023°41'714.6
2017-Jun-16 22:30N 37°33' E 023°40'713.5
2017-Jun-16 22:00N 37°40' E 023°39'4 8.0
2017-Jun-16 21:30N 37°43' E 023°40'4 7.5
2017-Jun-16 21:00N 37°47' E 023°38'714.0
2017-Jun-16 20:30N 37°54' E 023°36'3 6.4
2017-Jun-16 20:00N 37°57' E 023°36'0 0.6
2017-Jun-16 19:29N 37°57' E 023°36'0 0.0
2017-Jun-16 18:59N 37°57' E 023°36'0 0.0
2017-Jun-16 18:29N 37°57' E 023°36'0 0.0
2017-Jun-16 17:59N 37°57' E 023°36'0 0.0
2017-Jun-16 17:26N 37°57' E 023°36'0 0.0
2017-Jun-16 16:59N 37°57' E 023°36'0 0.0
2017-Jun-16 16:29N 37°57' E 023°36'0 0.0
2017-Jun-16 15:56N 37°57' E 023°36'0 0.0
2017-Jun-16 15:29N 37°57' E 023°36'0 0.0
2017-Jun-16 14:59N 37°57' E 023°36'0 0.0
2017-Jun-16 14:29N 37°57' E 023°36'0 0.0
2017-Jun-16 13:23N 37°57' E 023°36'0 0.1
2017-Jun-16 12:59N 37°57' E 023°36'0 0.0
2017-Jun-16 12:29N 37°57' E 023°36'0 0.1
2017-Jun-16 11:59N 37°57' E 023°36'0 0.1
2017-Jun-16 11:29N 37°57' E 023°36'0 0.1
2017-Jun-16 10:59N 37°57' E 023°36'0 0.0
2017-Jun-16 10:26N 37°57' E 023°36'0 0.1
2017-Jun-16 09:56N 37°57' E 023°36'0 0.0
2017-Jun-16 09:29N 37°57' E 023°36'0 0.0
2017-Jun-16 08:59N 37°57' E 023°36'0 0.0
2017-Jun-16 08:29N 37°57' E 023°36'0 0.0
2017-Jun-16 07:59N 37°57' E 023°36'0 0.0
2017-Jun-16 07:26N 37°57' E 023°36'0 0.0
2017-Jun-16 07:00N 37°57' E 023°36'3 5.2
2017-Jun-16 06:30N 37°55' E 023°36'0 0.7
2017-Jun-16 06:00N 37°55' E 023°36'4 8.0
2017-Jun-16 05:30N 37°51' E 023°39'714.4
2017-Jun-16 05:00N 37°45' E 023°43'714.7
2017-Jun-16 04:30N 37°38' E 023°46'814.9
2017-Jun-16 04:00N 37°31' E 023°49'  

Dump ship's entire track history